createdAt,value
2019-03-23T00:00:56.523Z,9.30
2019-03-23T00:03:24.743Z,9.30
2019-03-23T00:05:51.375Z,9.30
2019-03-23T00:08:17.957Z,9.30
2019-03-23T00:10:44.566Z,9.30
2019-03-23T00:13:11.145Z,9.20
2019-03-23T00:15:37.767Z,9.20
2019-03-23T00:18:04.345Z,9.20
2019-03-23T00:20:30.877Z,9.20
2019-03-23T00:22:57.453Z,9.20
2019-03-23T00:25:24.584Z,9.20
2019-03-23T00:27:51.251Z,9.10
2019-03-23T00:30:17.897Z,9.10
2019-03-23T00:32:44.554Z,9.00
2019-03-23T00:35:11.479Z,9.10
2019-03-23T00:37:38.003Z,9.10
2019-03-23T00:40:06.509Z,9.10
2019-03-23T00:42:33.127Z,9.10
2019-03-23T00:44:59.932Z,8.90
2019-03-23T00:47:27.333Z,8.90
2019-03-23T00:49:54.002Z,8.90
2019-03-23T00:52:20.707Z,8.90
2019-03-23T00:54:47.266Z,8.80
2019-03-23T00:57:13.882Z,8.80
2019-03-23T00:59:40.533Z,8.70
2019-03-23T01:02:07.053Z,8.70
2019-03-23T01:04:33.728Z,8.60
2019-03-23T01:07:00.256Z,8.70
2019-03-23T01:09:26.819Z,8.60
2019-03-23T01:11:53.333Z,8.50
2019-03-23T01:14:19.999Z,8.60
2019-03-23T01:16:46.516Z,8.50
2019-03-23T01:19:13.078Z,8.50
2019-03-23T01:21:39.599Z,8.50
2019-03-23T01:24:06.113Z,8.60
2019-03-23T01:26:32.676Z,8.50
2019-03-23T01:28:59.097Z,8.50
2019-03-23T01:31:25.647Z,8.50
2019-03-23T01:33:52.876Z,8.40
2019-03-23T01:36:19.838Z,8.40
2019-03-23T01:38:46.573Z,8.40
2019-03-23T01:41:13.633Z,8.40
2019-03-23T01:43:40.244Z,8.40
2019-03-23T01:46:06.897Z,8.40
2019-03-23T01:48:33.417Z,8.30
2019-03-23T01:51:00.271Z,8.30
2019-03-23T01:53:26.807Z,8.30
2019-03-23T01:55:53.365Z,8.30
2019-03-23T01:58:19.891Z,8.20
2019-03-23T02:00:46.451Z,8.30
2019-03-23T02:03:12.974Z,8.30
2019-03-23T02:05:39.601Z,8.30
2019-03-23T02:08:05.988Z,8.30
2019-03-23T02:10:32.553Z,8.20
2019-03-23T02:12:59.069Z,8.20
2019-03-23T02:15:25.644Z,8.20
2019-03-23T02:17:52.665Z,8.20
2019-03-23T02:20:19.188Z,8.20
2019-03-23T02:22:45.643Z,8.10
2019-03-23T02:25:12.383Z,8.00
2019-03-23T02:27:38.833Z,8.00
2019-03-23T02:30:08.256Z,8.10
2019-03-23T02:32:34.700Z,8.00
2019-03-23T02:35:01.231Z,8.00
2019-03-23T02:37:28.331Z,7.90
2019-03-23T02:39:55.159Z,7.90
2019-03-23T02:42:21.838Z,7.90
2019-03-23T02:44:48.361Z,7.90
2019-03-23T02:47:14.938Z,7.90
2019-03-23T02:49:41.441Z,7.90
2019-03-23T02:52:07.999Z,7.80
2019-03-23T02:54:34.526Z,7.80
2019-03-23T02:57:01.081Z,7.90
2019-03-23T02:59:27.705Z,7.70
2019-03-23T03:01:54.351Z,7.70
2019-03-23T03:04:20.911Z,7.70
2019-03-23T03:06:47.558Z,7.80
2019-03-23T03:09:14.180Z,7.70
2019-03-23T03:11:40.841Z,7.60
2019-03-23T03:14:07.354Z,7.70
2019-03-23T03:16:33.980Z,7.60
2019-03-23T03:19:00.651Z,7.50
2019-03-23T03:21:27.267Z,7.70
2019-03-23T03:23:53.835Z,7.60
2019-03-23T03:26:20.453Z,7.70
2019-03-23T03:28:47.018Z,7.70
2019-03-23T03:31:13.531Z,7.70
2019-03-23T03:33:40.093Z,7.70
2019-03-23T03:36:06.495Z,7.60
2019-03-23T03:38:33.053Z,7.50
2019-03-23T03:40:59.670Z,7.60
2019-03-23T03:43:26.433Z,7.60
2019-03-23T03:45:53.063Z,7.60
2019-03-23T03:48:19.732Z,7.50
2019-03-23T03:50:46.257Z,7.70
2019-03-23T03:53:12.815Z,7.70
2019-03-23T03:55:39.337Z,7.70
2019-03-23T03:58:05.905Z,7.70
2019-03-23T04:00:32.442Z,7.80
2019-03-23T04:02:58.988Z,7.70
2019-03-23T04:05:25.632Z,7.50
2019-03-23T04:07:52.304Z,7.50
2019-03-23T04:10:18.802Z,7.40
2019-03-23T04:12:45.461Z,7.50
2019-03-23T04:15:12.492Z,7.60
2019-03-23T04:17:39.321Z,7.40
2019-03-23T04:20:07.085Z,7.50
2019-03-23T04:22:33.708Z,7.60
2019-03-23T04:25:00.583Z,7.60
2019-03-23T04:27:27.305Z,7.40
2019-03-23T04:29:53.864Z,7.50
2019-03-23T04:32:20.391Z,7.50
2019-03-23T04:34:46.957Z,7.60
2019-03-23T04:37:13.494Z,7.50
2019-03-23T04:39:40.048Z,7.40
2019-03-23T04:42:06.563Z,7.40
2019-03-23T04:44:33.231Z,7.30
2019-03-23T04:46:59.836Z,7.50
2019-03-23T04:49:26.597Z,7.40
2019-03-23T04:51:53.124Z,7.30
2019-03-23T04:54:19.897Z,7.20
2019-03-23T04:56:46.534Z,7.10
2019-03-23T04:59:13.292Z,7.10
2019-03-23T05:01:39.928Z,7.10
2019-03-23T05:04:06.617Z,7.00
2019-03-23T05:06:33.101Z,7.00
2019-03-23T05:08:59.764Z,7.00
2019-03-23T05:11:26.279Z,7.10
2019-03-23T05:13:52.848Z,7.00
2019-03-23T05:16:19.383Z,7.10
2019-03-23T05:18:45.943Z,7.10
2019-03-23T05:21:12.579Z,7.10
2019-03-23T05:23:39.132Z,7.20
2019-03-23T05:26:05.761Z,7.20
2019-03-23T05:28:34.023Z,7.10
2019-03-23T05:31:00.601Z,7.20
2019-03-23T05:33:28.885Z,7.20
2019-03-23T05:35:56.071Z,7.20
2019-03-23T05:38:22.731Z,7.20
2019-03-23T05:40:49.972Z,7.10
2019-03-23T05:43:16.398Z,7.10
2019-03-23T05:45:43.008Z,7.20
2019-03-23T05:48:09.633Z,7.20
2019-03-23T05:50:36.294Z,7.20
2019-03-23T05:53:02.922Z,7.30
2019-03-23T05:55:29.571Z,7.30
2019-03-23T05:57:56.206Z,7.50
2019-03-23T06:00:22.781Z,7.50
2019-03-23T06:02:49.306Z,7.70
2019-03-23T06:05:15.988Z,7.50
2019-03-23T06:07:42.634Z,7.40
2019-03-23T06:10:09.399Z,7.40
2019-03-23T06:12:35.922Z,7.30
2019-03-23T06:15:05.377Z,7.30
2019-03-23T06:17:31.800Z,7.30
2019-03-23T06:19:58.460Z,7.20
2019-03-23T06:22:25.080Z,7.20
2019-03-23T06:24:51.635Z,7.20
2019-03-23T06:27:18.260Z,7.20
2019-03-23T06:29:44.916Z,7.30
2019-03-23T06:32:11.637Z,7.40
2019-03-23T06:34:38.311Z,7.40
2019-03-23T06:37:04.943Z,7.50
2019-03-23T06:39:31.599Z,7.50
2019-03-23T06:41:58.128Z,7.50
2019-03-23T06:44:24.796Z,7.50
2019-03-23T06:46:51.308Z,7.60
2019-03-23T06:49:18.060Z,7.60
2019-03-23T06:51:44.589Z,7.50
2019-03-23T06:54:11.255Z,7.30
2019-03-23T06:56:37.772Z,7.30
2019-03-23T06:59:04.386Z,7.40
2019-03-23T07:01:31.184Z,7.30
2019-03-23T07:03:57.745Z,7.30
2019-03-23T07:06:24.421Z,7.30
2019-03-23T07:08:51.073Z,7.40
2019-03-23T07:11:17.740Z,7.40
2019-03-23T07:13:44.476Z,7.50
2019-03-23T07:16:11.017Z,7.40
2019-03-23T07:18:37.644Z,7.30
2019-03-23T07:21:04.206Z,7.20
2019-03-23T07:23:30.723Z,7.20
2019-03-23T07:25:57.293Z,7.40
2019-03-23T07:28:23.912Z,7.50
2019-03-23T07:30:50.680Z,7.60
2019-03-23T07:33:18.905Z,7.80
2019-03-23T07:35:45.468Z,7.70
2019-03-23T07:38:12.191Z,7.70
2019-03-23T07:40:38.757Z,7.70
2019-03-23T07:43:05.464Z,7.70
2019-03-23T07:45:32.127Z,7.50
2019-03-23T07:48:00.354Z,7.60
2019-03-23T07:50:27.087Z,7.70
2019-03-23T07:52:53.837Z,7.80
2019-03-23T07:55:20.380Z,7.70
2019-03-23T07:57:47.013Z,7.60
2019-03-23T08:00:18.669Z,7.50
2019-03-23T08:02:45.313Z,7.50
2019-03-23T08:05:11.981Z,7.60
2019-03-23T08:07:38.729Z,7.70
2019-03-23T08:10:06.760Z,7.90
2019-03-23T08:12:33.619Z,8.10
2019-03-23T08:15:00.380Z,8.30
2019-03-23T08:17:26.917Z,8.10
2019-03-23T08:19:53.446Z,8.00
2019-03-23T08:22:20.106Z,8.00
2019-03-23T08:24:46.635Z,8.10
2019-03-23T08:27:13.284Z,8.20
2019-03-23T08:29:39.816Z,8.30
2019-03-23T08:32:06.472Z,8.40
2019-03-23T08:34:32.992Z,8.60
2019-03-23T08:37:02.039Z,8.40
2019-03-23T08:39:27.992Z,8.30
2019-03-23T08:41:54.552Z,7.90
2019-03-23T08:44:21.072Z,8.00
2019-03-23T08:46:47.627Z,8.30
2019-03-23T08:49:14.159Z,8.50
2019-03-23T08:51:40.701Z,8.60
2019-03-23T08:54:07.316Z,8.60
2019-03-23T08:56:33.948Z,8.40
2019-03-23T08:59:00.593Z,8.40
2019-03-23T09:01:27.316Z,8.30
2019-03-23T09:03:53.964Z,8.20
2019-03-23T09:06:20.621Z,8.10
2019-03-23T09:08:47.420Z,8.10
2019-03-23T09:11:20.430Z,8.10
2019-03-23T09:13:42.507Z,8.10
2019-03-23T09:16:09.020Z,8.30
2019-03-23T09:18:35.580Z,8.40
2019-03-23T09:21:02.194Z,8.50
2019-03-23T09:23:28.850Z,8.70
2019-03-23T09:25:55.474Z,8.80
2019-03-23T09:28:23.039Z,8.80
2019-03-23T09:30:49.664Z,8.80
2019-03-23T09:33:16.326Z,9.00
2019-03-23T09:35:42.849Z,8.90
2019-03-23T09:38:09.411Z,9.10
2019-03-23T09:40:35.928Z,9.00
2019-03-23T09:43:02.526Z,8.70
2019-03-23T09:45:29.159Z,8.90
2019-03-23T09:47:55.820Z,8.60
2019-03-23T09:50:22.248Z,8.70
2019-03-23T09:52:48.912Z,8.60
2019-03-23T09:55:15.475Z,8.60
2019-03-23T09:57:42.073Z,8.70
2019-03-23T10:00:10.917Z,9.00
2019-03-23T10:02:37.801Z,9.00
2019-03-23T10:05:05.969Z,9.00
2019-03-23T10:07:32.492Z,9.40
2019-03-23T10:09:59.164Z,9.40
2019-03-23T10:12:25.695Z,9.40
2019-03-23T10:14:52.261Z,9.50
2019-03-23T10:17:18.989Z,9.60
2019-03-23T10:19:45.545Z,9.60
2019-03-23T10:22:12.173Z,9.80
2019-03-23T10:24:38.831Z,10.00
2019-03-23T10:27:05.456Z,9.90
2019-03-23T10:29:32.018Z,10.10
2019-03-23T10:31:58.635Z,9.90
2019-03-23T10:34:25.210Z,9.90
2019-03-23T10:36:51.835Z,10.20
2019-03-23T10:39:18.692Z,10.30
2019-03-23T10:41:45.218Z,10.60
2019-03-23T10:44:11.884Z,10.80
2019-03-23T10:46:38.498Z,11.00
2019-03-23T10:49:05.156Z,10.80
2019-03-23T10:51:31.676Z,11.00
2019-03-23T10:53:58.336Z,10.90
2019-03-23T10:56:24.855Z,11.20
2019-03-23T10:58:51.499Z,11.30
2019-03-23T11:01:18.018Z,11.60
2019-03-23T11:03:44.789Z,11.80
2019-03-23T11:06:11.392Z,11.60
2019-03-23T11:08:37.924Z,11.50
2019-03-23T11:11:04.587Z,11.60
2019-03-23T11:13:34.141Z,11.50
2019-03-23T11:16:00.602Z,11.40
2019-03-23T11:18:27.212Z,11.20
2019-03-23T11:20:54.775Z,11.40
2019-03-23T11:23:21.994Z,11.50
2019-03-23T11:25:48.596Z,11.60
2019-03-23T11:28:15.128Z,11.70
2019-03-23T11:30:41.808Z,11.80
2019-03-23T11:33:08.277Z,11.60
2019-03-23T11:35:34.847Z,11.60
2019-03-23T11:38:02.490Z,11.60
2019-03-23T11:40:29.226Z,11.60
2019-03-23T11:42:57.093Z,11.50
2019-03-23T11:45:23.616Z,11.70
2019-03-23T11:47:50.152Z,11.70
2019-03-23T11:50:16.718Z,11.90
2019-03-23T11:52:46.936Z,11.80
2019-03-23T11:55:11.887Z,11.80
2019-03-23T11:57:38.507Z,11.80
2019-03-23T12:00:08.733Z,11.50
2019-03-23T12:02:35.249Z,11.40
2019-03-23T12:05:03.541Z,11.40
2019-03-23T12:07:30.074Z,11.40
2019-03-23T12:09:56.740Z,11.30
2019-03-23T12:12:23.411Z,11.20
2019-03-23T12:14:50.131Z,11.30
2019-03-23T12:17:16.701Z,11.30
2019-03-23T12:19:43.228Z,11.40
2019-03-23T12:22:09.877Z,11.40
2019-03-23T12:24:36.407Z,11.30
2019-03-23T12:27:03.088Z,11.40
2019-03-23T12:29:29.696Z,11.30
2019-03-23T12:31:56.351Z,11.20
2019-03-23T12:34:22.967Z,11.30
2019-03-23T12:36:50.545Z,11.30
2019-03-23T12:39:17.147Z,11.40
2019-03-23T12:41:43.899Z,11.20
2019-03-23T12:44:10.429Z,11.10
2019-03-23T12:46:36.888Z,11.10
2019-03-23T12:49:03.412Z,11.20
2019-03-23T12:51:29.972Z,11.30
2019-03-23T12:53:56.508Z,11.40
2019-03-23T12:56:23.060Z,11.40
2019-03-23T12:58:49.579Z,11.30
2019-03-23T13:01:16.253Z,11.20
2019-03-23T13:03:42.869Z,11.10
2019-03-23T13:06:09.555Z,11.00
2019-03-23T13:08:36.186Z,10.90
2019-03-23T13:11:02.863Z,10.90
2019-03-23T13:13:29.397Z,10.80
2019-03-23T13:15:55.921Z,10.90
2019-03-23T13:18:27.068Z,10.80
2019-03-23T13:20:51.096Z,10.70
2019-03-23T13:23:18.161Z,10.80
2019-03-23T13:25:44.779Z,10.50
2019-03-23T13:28:11.437Z,10.50
2019-03-23T13:30:38.081Z,10.40
2019-03-23T13:33:04.642Z,10.40
2019-03-23T13:35:31.160Z,10.50
2019-03-23T13:37:57.716Z,10.50
2019-03-23T13:40:24.244Z,10.40
2019-03-23T13:42:50.787Z,10.40
2019-03-23T13:45:17.314Z,10.60
2019-03-23T13:47:43.863Z,10.50
2019-03-23T13:50:12.000Z,10.50
2019-03-23T13:52:38.651Z,10.60
2019-03-23T13:55:06.072Z,10.70
2019-03-23T13:57:32.723Z,10.70
2019-03-23T13:59:59.349Z,11.20
2019-03-23T14:02:26.020Z,11.50
2019-03-23T14:04:52.580Z,11.90
2019-03-23T14:07:19.131Z,12.20
2019-03-23T14:09:45.761Z,12.00
2019-03-23T14:12:12.434Z,11.80
2019-03-23T14:14:39.053Z,11.50
2019-03-23T14:17:05.609Z,11.40
2019-03-23T14:19:32.224Z,11.40
2019-03-23T14:21:58.749Z,11.50
2019-03-23T14:24:36.319Z,11.60
2019-03-23T14:27:02.852Z,11.90
2019-03-23T14:29:29.410Z,11.60
2019-03-23T14:31:56.028Z,11.60
2019-03-23T14:34:22.580Z,11.90
2019-03-23T14:36:49.105Z,12.30
2019-03-23T14:39:15.661Z,12.80
2019-03-23T14:41:42.199Z,12.90
2019-03-23T14:44:08.787Z,12.30
2019-03-23T14:46:35.318Z,12.10
2019-03-23T14:49:02.130Z,12.00
2019-03-23T14:51:28.725Z,12.30
2019-03-23T14:53:55.385Z,12.70
2019-03-23T14:56:21.996Z,12.50
2019-03-23T14:58:48.589Z,12.30
2019-03-23T15:01:15.225Z,12.10
2019-03-23T15:03:41.902Z,12.20
2019-03-23T15:06:08.460Z,12.20
2019-03-23T15:08:35.053Z,12.00
2019-03-23T15:11:01.570Z,11.90
2019-03-23T15:13:28.232Z,11.90
2019-03-23T15:15:54.743Z,11.80
2019-03-23T15:18:21.706Z,11.80
2019-03-23T15:20:48.332Z,11.80
2019-03-23T15:23:15.117Z,11.80
2019-03-23T15:25:41.737Z,12.00
2019-03-23T15:28:08.896Z,12.20
2019-03-23T15:30:35.522Z,12.30
2019-03-23T15:33:04.762Z,12.90
2019-03-23T15:35:31.508Z,13.00
2019-03-23T15:37:58.149Z,12.90
2019-03-23T15:40:24.724Z,12.70
2019-03-23T15:42:51.436Z,12.40
2019-03-23T15:45:18.194Z,12.40
2019-03-23T15:47:46.415Z,12.40
2019-03-23T15:50:13.488Z,12.30
2019-03-23T15:52:40.026Z,12.10
2019-03-23T15:55:06.792Z,11.90
2019-03-23T15:57:34.319Z,12.00
2019-03-23T16:00:00.900Z,12.10
2019-03-23T16:02:27.415Z,11.90
2019-03-23T16:04:54.115Z,11.90
2019-03-23T16:07:29.206Z,12.50
2019-03-23T16:09:49.089Z,13.60
2019-03-23T16:12:15.712Z,13.90
2019-03-23T16:14:42.382Z,14.30
2019-03-23T16:17:08.973Z,13.80
2019-03-23T16:19:35.527Z,13.10
2019-03-23T16:22:02.964Z,12.80
2019-03-23T16:24:29.719Z,12.40
2019-03-23T16:26:57.059Z,12.10
2019-03-23T16:29:24.672Z,11.80
2019-03-23T16:31:51.200Z,12.00
2019-03-23T16:34:17.962Z,11.70
2019-03-23T16:36:45.517Z,11.60
2019-03-23T16:39:12.164Z,11.50
2019-03-23T16:41:38.681Z,11.30
2019-03-23T16:44:05.245Z,11.40
2019-03-23T16:46:31.765Z,11.40
2019-03-23T16:49:00.288Z,11.60
2019-03-23T16:51:26.542Z,11.20
2019-03-23T16:53:53.173Z,11.40
2019-03-23T16:56:19.841Z,11.60
2019-03-23T16:58:46.399Z,11.60
2019-03-23T17:01:13.008Z,11.40
2019-03-23T17:03:39.544Z,11.30
2019-03-23T17:06:06.132Z,11.40
2019-03-23T17:08:32.771Z,11.30
2019-03-23T17:10:59.327Z,11.10
2019-03-23T17:13:25.964Z,11.00
2019-03-23T17:15:52.776Z,11.00
2019-03-23T17:18:19.251Z,11.00
2019-03-23T17:20:45.906Z,10.90
2019-03-23T17:23:12.544Z,10.60
2019-03-23T17:25:39.092Z,10.20
2019-03-23T17:28:05.622Z,10.50
2019-03-23T17:30:32.189Z,10.30
2019-03-23T17:32:58.713Z,10.20
2019-03-23T17:35:25.264Z,10.10
2019-03-23T17:37:51.895Z,10.00
2019-03-23T17:40:18.448Z,10.00
2019-03-23T17:42:45.082Z,10.00
2019-03-23T17:45:11.948Z,10.00
2019-03-23T17:47:38.568Z,10.00
2019-03-23T17:50:05.543Z,10.00
2019-03-23T17:52:32.084Z,9.80
2019-03-23T17:54:58.804Z,9.80
2019-03-23T17:57:26.129Z,9.80
2019-03-23T17:59:53.148Z,9.70
2019-03-23T18:02:19.718Z,9.60
2019-03-23T18:04:46.462Z,9.40
2019-03-23T18:07:13.124Z,9.30
2019-03-23T18:09:39.884Z,9.20
2019-03-23T18:12:06.543Z,9.40
2019-03-23T18:14:34.207Z,9.40
2019-03-23T18:17:00.826Z,9.30
2019-03-23T18:19:27.453Z,9.30
2019-03-23T18:21:54.796Z,9.10
2019-03-23T18:24:21.424Z,9.30
2019-03-23T18:26:48.317Z,9.30
2019-03-23T18:29:16.563Z,9.40
2019-03-23T18:31:43.303Z,9.40
2019-03-23T18:34:09.948Z,9.20
2019-03-23T18:36:36.516Z,9.10
2019-03-23T18:39:04.242Z,9.10
2019-03-23T18:41:30.862Z,9.10
2019-03-23T18:43:57.489Z,9.10
2019-03-23T18:46:24.654Z,8.90
2019-03-23T18:48:51.357Z,8.90
2019-03-23T18:51:17.888Z,8.80
2019-03-23T18:53:44.552Z,8.70
2019-03-23T18:56:11.180Z,8.60
2019-03-23T18:58:38.091Z,8.70
2019-03-23T19:01:04.615Z,8.50
2019-03-23T19:03:31.189Z,8.60
2019-03-23T19:05:57.942Z,8.50
2019-03-23T19:08:24.500Z,8.60
2019-03-23T19:10:51.036Z,8.60
2019-03-23T19:13:17.607Z,8.70
2019-03-23T19:15:44.123Z,8.90
2019-03-23T19:18:10.680Z,8.70
2019-03-23T19:20:37.207Z,8.60
2019-03-23T19:23:04.270Z,8.60
2019-03-23T19:25:30.799Z,8.60
2019-03-23T19:27:58.025Z,8.50
2019-03-23T19:30:24.642Z,8.40
2019-03-23T19:32:51.295Z,8.60
2019-03-23T19:35:18.160Z,8.70
2019-03-23T19:37:44.729Z,8.60
2019-03-23T19:40:11.454Z,8.50
2019-03-23T19:42:38.344Z,8.40
2019-03-23T19:45:06.436Z,8.40
2019-03-23T19:47:33.206Z,8.30
2019-03-23T19:49:59.720Z,8.30
2019-03-23T19:52:26.568Z,8.10
2019-03-23T19:54:53.153Z,8.10
2019-03-23T19:57:20.256Z,8.20
2019-03-23T19:59:46.653Z,8.00
2019-03-23T20:02:13.674Z,8.10
2019-03-23T20:04:40.328Z,7.90
2019-03-23T20:07:06.981Z,7.80
2019-03-23T20:09:33.736Z,7.80
2019-03-23T20:12:00.607Z,7.90
2019-03-23T20:14:27.170Z,7.70
2019-03-23T20:16:53.706Z,7.70
2019-03-23T20:19:20.299Z,7.80
2019-03-23T20:21:46.878Z,7.90
2019-03-23T20:24:13.635Z,7.90
2019-03-23T20:26:40.360Z,7.70
2019-03-23T20:29:09.130Z,7.60
2019-03-23T20:31:35.485Z,7.60
2019-03-23T20:34:02.535Z,7.50
2019-03-23T20:36:29.374Z,7.60
2019-03-23T20:38:56.048Z,7.60
2019-03-23T20:41:22.847Z,7.40
2019-03-23T20:43:49.377Z,7.40
2019-03-23T20:46:16.119Z,7.40
2019-03-23T20:48:44.188Z,7.50
2019-03-23T20:51:11.600Z,7.40
2019-03-23T20:53:38.450Z,7.30
2019-03-23T20:56:05.001Z,7.20
2019-03-23T20:58:31.822Z,7.30
2019-03-23T21:00:58.488Z,7.30
2019-03-23T21:03:25.118Z,7.20
2019-03-23T21:05:51.735Z,7.20
2019-03-23T21:08:18.385Z,7.30
2019-03-23T21:10:45.039Z,7.30
2019-03-23T21:13:11.656Z,7.40
2019-03-23T21:15:38.291Z,7.30
2019-03-23T21:18:04.736Z,7.40
2019-03-23T21:20:31.379Z,7.30
2019-03-23T21:22:59.610Z,7.30
2019-03-23T21:25:26.272Z,7.20
2019-03-23T21:27:52.893Z,7.30
2019-03-23T21:30:20.866Z,7.20
2019-03-23T21:32:49.085Z,7.00
2019-03-23T21:35:16.738Z,7.10
2019-03-23T21:37:43.487Z,7.10
2019-03-23T21:40:11.139Z,7.20
2019-03-23T21:42:37.833Z,7.10
2019-03-23T21:45:06.509Z,7.00
2019-03-23T21:47:33.095Z,7.00
2019-03-23T21:50:00.130Z,6.90
2019-03-23T21:52:26.807Z,7.00
2019-03-23T21:54:53.474Z,6.70
2019-03-23T21:57:20.096Z,6.50
2019-03-23T21:59:46.964Z,6.50
2019-03-23T22:02:13.519Z,6.50
2019-03-23T22:04:40.067Z,6.40
2019-03-23T22:07:06.650Z,6.40
2019-03-23T22:09:33.255Z,6.60
2019-03-23T22:11:59.811Z,6.70
2019-03-23T22:14:26.451Z,6.70
2019-03-23T22:16:53.120Z,6.70
2019-03-23T22:19:19.744Z,6.70
2019-03-23T22:21:46.298Z,6.80
2019-03-23T22:24:12.820Z,6.70
2019-03-23T22:26:39.370Z,6.70
2019-03-23T22:29:05.899Z,6.90
2019-03-23T22:31:32.459Z,6.80
2019-03-23T22:33:59.012Z,6.50
2019-03-23T22:36:25.679Z,6.40
2019-03-23T22:38:52.335Z,6.40
2019-03-23T22:41:19.034Z,6.50
2019-03-23T22:43:45.566Z,6.60
2019-03-23T22:46:12.189Z,6.60
2019-03-23T22:48:38.676Z,6.60
2019-03-23T22:51:05.334Z,6.80
2019-03-23T22:53:31.998Z,6.60
2019-03-23T22:55:58.522Z,6.70
2019-03-23T22:58:25.049Z,6.60
2019-03-23T23:00:53.188Z,6.50
2019-03-23T23:03:19.836Z,6.50
2019-03-23T23:05:46.505Z,6.50
2019-03-23T23:08:13.359Z,6.50
2019-03-23T23:10:41.594Z,6.70
2019-03-23T23:13:08.175Z,6.60
2019-03-23T23:15:36.400Z,6.70
2019-03-23T23:18:03.291Z,6.60
2019-03-23T23:20:29.807Z,6.50
2019-03-23T23:22:56.469Z,6.40
2019-03-23T23:25:22.983Z,6.40
2019-03-23T23:27:49.638Z,6.40
2019-03-23T23:30:16.796Z,6.50
2019-03-23T23:32:43.348Z,6.60
2019-03-23T23:35:10.474Z,6.60
2019-03-23T23:37:37.255Z,6.60
2019-03-23T23:40:05.889Z,6.50
2019-03-23T23:42:32.454Z,6.50
2019-03-23T23:44:59.080Z,6.40
2019-03-23T23:47:25.734Z,6.40
2019-03-23T23:49:52.459Z,6.50
2019-03-23T23:52:19.116Z,6.30
2019-03-23T23:54:45.839Z,6.30
2019-03-23T23:57:12.501Z,6.30
2019-03-23T23:59:39.224Z,6.20
